Time;durP1;ratioP1;P1;durP2;ratioP2;P2;SDS_P1;SDS_P2;PMS_P1;PMS_P2;Temp;Humidity;BMP_temperature;BMP_pressure;BME280_temperature;BME280_humidity;BME280_pressure;Samples;Min_cycle;Max_cycle;Signal;HPM_P1;HPM_P2
2022/03/19 00:00:15;;;;;;;8.13;5.30;;;14.20;66.60;;;;;;5032828;28;20096;-59
2022/03/19 00:02:40;;;;;;;8.48;5.30;;;14.30;66.40;;;;;;5033312;28;20037;-60
2022/03/19 00:05:08;;;;;;;8.95;5.15;;;14.30;66.50;;;;;;5033320;28;20505;-62
2022/03/19 00:07:36;;;;;;;11.02;5.25;;;14.20;66.50;;;;;;5032740;28;20421;-60
2022/03/19 00:10:04;;;;;;;8.80;4.80;;;14.20;66.50;;;;;;5032441;28;20037;-66
2022/03/19 00:12:30;;;;;;;10.35;5.28;;;14.30;66.40;;;;;;5032782;28;20394;-60
2022/03/19 00:14:55;;;;;;;9.15;4.95;;;14.30;66.20;;;;;;5032546;28;20557;-66
2022/03/19 00:17:21;;;;;;;9.00;4.97;;;14.30;66.40;;;;;;5033247;28;20036;-64
2022/03/19 00:19:46;;;;;;;8.88;4.80;;;14.30;66.20;;;;;;5033068;28;20032;-66
2022/03/19 00:22:12;;;;;;;8.25;4.80;;;14.30;66.40;;;;;;5032725;28;20043;-59
2022/03/19 00:24:38;;;;;;;7.45;4.97;;;14.20;66.90;;;;;;5032960;28;20064;-65
2022/03/19 00:27:03;;;;;;;10.75;5.28;;;14.20;66.80;;;;;;5032220;28;20030;-59
2022/03/19 00:29:29;;;;;;;11.70;5.13;;;14.10;66.90;;;;;;5032936;28;20049;-66
2022/03/19 00:31:54;;;;;;;11.02;5.95;;;14.20;66.80;;;;;;5032862;28;20025;-65
2022/03/19 00:34:21;;;;;;;8.63;5.90;;;14.10;67.00;;;;;;5032733;28;20037;-66
2022/03/19 00:36:47;;;;;;;8.25;5.40;;;14.10;67.00;;;;;;5032755;28;20032;-65
2022/03/19 00:39:12;;;;;;;8.25;5.30;;;14.10;67.10;;;;;;5029250;28;20029;-57
2022/03/19 00:41:38;;;;;;;11.27;6.25;;;13.90;67.40;;;;;;5027880;28;20025;-60
2022/03/19 00:44:03;;;;;;;9.32;5.18;;;13.90;67.60;;;;;;5031176;28;20601;-59
2022/03/19 00:46:29;;;;;;;8.85;4.95;;;13.90;67.70;;;;;;5032977;28;20013;-66
2022/03/19 00:48:55;;;;;;;8.30;4.97;;;13.90;67.60;;;;;;5033607;28;20029;-66
2022/03/19 00:51:20;;;;;;;10.57;4.97;;;13.90;67.70;;;;;;5036470;28;20227;-66
2022/03/19 00:53:46;;;;;;;10.68;5.45;;;14.00;67.80;;;;;;5036302;28;20047;-66
2022/03/19 00:56:11;;;;;;;9.55;5.40;;;13.90;67.60;;;;;;5030364;28;20037;-67
2022/03/19 00:58:37;;;;;;;8.32;5.60;;;13.90;67.70;;;;;;5036792;28;20053;-67
2022/03/19 01:01:03;;;;;;;9.27;5.25;;;13.90;67.80;;;;;;5026655;28;20072;-67
2022/03/19 01:03:28;;;;;;;9.43;5.45;;;14.00;67.70;;;;;;5035380;28;20043;-60
2022/03/19 01:05:54;;;;;;;7.45;5.22;;;13.90;67.80;;;;;;5020723;28;20096;-65
2022/03/19 01:08:20;;;;;;;8.95;4.93;;;13.80;68.00;;;;;;5033836;28;20061;-64
2022/03/19 01:10:45;;;;;;;8.13;5.10;;;13.70;68.30;;;;;;5036195;28;20482;-60
2022/03/19 01:13:11;;;;;;;8.07;5.18;;;13.80;68.10;;;;;;5035814;28;20037;-63
2022/03/19 01:15:36;;;;;;;8.90;5.47;;;13.70;68.30;;;;;;5036223;28;20079;-64
2022/03/19 01:18:02;;;;;;;8.80;5.35;;;13.70;68.40;;;;;;5035938;28;20505;-64
2022/03/19 01:20:29;;;;;;;8.60;5.05;;;13.80;68.10;;;;;;5035908;28;20681;-64
2022/03/19 01:22:54;;;;;;;6.68;4.70;;;13.80;68.10;;;;;;5035764;28;20041;-66
2022/03/19 01:25:21;;;;;;;7.65;5.25;;;13.70;68.30;;;;;;5035801;28;20032;-65
2022/03/19 01:27:49;;;;;;;9.75;5.32;;;13.60;68.70;;;;;;5036089;28;20025;-66
2022/03/19 01:30:19;;;;;;;7.40;5.20;;;13.60;68.70;;;;;;5035646;28;20550;-67
2022/03/19 01:32:48;;;;;;;9.55;5.70;;;13.60;68.70;;;;;;5035951;28;20025;-66
2022/03/19 01:35:16;;;;;;;8.30;4.32;;;13.70;68.60;;;;;;5035746;28;20036;-67
2022/03/19 01:37:42;;;;;;;8.15;4.85;;;13.70;68.70;;;;;;5018004;28;20032;-67
2022/03/19 01:40:10;;;;;;;9.85;6.10;;;13.70;68.50;;;;;;5035520;28;20092;-66
2022/03/19 01:42:39;;;;;;;9.82;5.28;;;13.60;68.70;;;;;;5035008;28;20139;-67
2022/03/19 01:45:09;;;;;;;10.57;5.25;;;13.50;68.90;;;;;;5035736;28;20029;-65
2022/03/19 01:47:35;;;;;;;9.23;5.40;;;13.60;69.30;;;;;;5035842;28;20010;-62
2022/03/19 01:50:01;;;;;;;8.68;5.22;;;13.60;68.60;;;;;;5035744;28;20103;-67
2022/03/19 01:52:28;;;;;;;9.90;5.60;;;13.60;68.60;;;;;;5035319;28;20021;-67
2022/03/19 01:54:55;;;;;;;11.05;6.03;;;13.70;68.50;;;;;;5035618;28;20021;-66
2022/03/19 01:57:23;;;;;;;12.30;6.00;;;13.70;68.30;;;;;;5035194;28;20025;-68
2022/03/19 01:59:51;;;;;;;7.18;5.13;;;13.70;68.20;;;;;;5034503;28;20021;-67
2022/03/19 02:02:17;;;;;;;11.85;5.47;;;13.70;68.30;;;;;;5035181;28;20017;-67
2022/03/19 02:04:44;;;;;;;8.95;5.38;;;13.70;68.30;;;;;;5035558;28;20033;-66
2022/03/19 02:07:12;;;;;;;10.80;5.28;;;13.70;68.10;;;;;;5034921;28;20492;-67
2022/03/19 02:09:38;;;;;;;6.78;4.85;;;13.60;68.20;;;;;;5035454;28;20037;-67
2022/03/19 02:12:05;;;;;;;10.50;6.25;;;13.70;68.10;;;;;;5034563;28;20061;-68
2022/03/19 02:14:38;;;;;;;9.13;5.47;;;13.60;68.20;;;;;;5034550;28;20033;-67
2022/03/19 02:17:05;;;;;;;8.52;5.35;;;13.70;68.20;;;;;;5034385;28;20020;-67
2022/03/19 02:19:31;;;;;;;7.57;5.22;;;13.60;68.40;;;;;;5035358;28;20064;-67
2022/03/19 02:21:57;;;;;;;8.85;5.90;;;13.50;68.60;;;;;;5034817;28;20053;-65
2022/03/19 02:27:07;;;;;;;11.63;5.72;;;13.50;68.90;;;;;;5034861;28;20036;-66
2022/03/19 02:29:33;;;;;;;10.65;6.57;;;13.50;68.90;;;;;;5034527;28;20049;-67
2022/03/19 02:32:01;;;;;;;7.15;6.03;;;13.50;68.90;;;;;;5034383;28;20061;-66
2022/03/19 02:34:27;;;;;;;8.27;6.38;;;13.50;68.90;;;;;;5034144;28;20040;-61
2022/03/19 02:36:53;;;;;;;9.85;6.30;;;13.50;69.00;;;;;;5034337;28;20060;-60
2022/03/19 02:39:30;;;;;;;10.50;6.55;;;13.50;69.10;;;;;;5034819;28;20061;-60
2022/03/19 02:41:58;;;;;;;11.95;6.90;;;13.50;69.20;;;;;;5034363;28;20463;-60
2022/03/19 02:44:23;;;;;;;12.18;7.60;;;13.50;69.20;;;;;;5034654;28;20071;-61
2022/03/19 02:46:52;;;;;;;8.77;6.45;;;13.50;69.30;;;;;;5033123;28;20559;-60
2022/03/19 02:49:18;;;;;;;8.80;7.13;;;13.50;69.20;;;;;;5033045;28;20036;-61
2022/03/19 02:51:50;;;;;;;11.00;7.13;;;13.50;69.30;;;;;;5034080;28;20044;-60
2022/03/19 02:54:18;;;;;;;10.05;7.43;;;13.50;69.40;;;;;;5029314;28;20018;-59
2022/03/19 02:56:45;;;;;;;8.57;6.63;;;13.40;69.40;;;;;;5022507;28;20402;-60
2022/03/19 02:59:13;;;;;;;11.07;7.10;;;13.40;69.50;;;;;;5023634;28;20446;-60
2022/03/19 03:01:42;;;;;;;11.68;6.75;;;13.40;69.70;;;;;;5034190;28;20100;-59
2022/03/19 03:04:07;;;;;;;13.05;7.32;;;13.40;69.60;;;;;;5034352;28;20037;-60
2022/03/19 03:06:38;;;;;;;8.18;6.38;;;13.40;69.70;;;;;;5033756;28;20036;-59
2022/03/19 03:09:04;;;;;;;12.45;7.57;;;13.30;69.70;;;;;;5027788;28;20029;-60
2022/03/19 03:11:30;;;;;;;14.23;7.07;;;13.30;69.90;;;;;;5031877;28;20399;-60
2022/03/19 03:13:56;;;;;;;12.15;7.13;;;13.30;69.80;;;;;;5021410;28;20048;-59
2022/03/19 03:16:22;;;;;;;11.65;7.25;;;13.30;70.00;;;;;;5016041;28;20068;-60
2022/03/19 03:18:48;;;;;;;9.75;7.30;;;13.30;70.10;;;;;;5015742;28;20029;-60
2022/03/19 03:21:14;;;;;;;12.07;7.40;;;13.20;70.20;;;;;;5033733;28;20039;-59
2022/03/19 03:23:39;;;;;;;9.15;8.13;;;13.20;70.40;;;;;;5033610;28;20112;-60
2022/03/19 03:26:06;;;;;;;10.02;7.57;;;13.20;70.40;;;;;;5033959;28;20431;-61
2022/03/19 03:28:31;;;;;;;10.00;6.80;;;13.20;70.50;;;;;;5032796;28;20064;-60
2022/03/19 03:30:57;;;;;;;12.23;8.18;;;13.10;70.50;;;;;;5032227;28;20025;-60
2022/03/19 03:33:24;;;;;;;10.63;7.65;;;13.20;70.50;;;;;;5031012;28;20045;-60
2022/03/19 03:35:50;;;;;;;14.27;8.20;;;13.10;70.50;;;;;;5033876;28;20024;-60
2022/03/19 03:38:15;;;;;;;13.68;7.40;;;13.10;70.50;;;;;;5033489;28;20052;-60
2022/03/19 03:40:41;;;;;;;11.52;7.57;;;13.10;70.70;;;;;;5032830;28;20053;-60
2022/03/19 03:43:08;;;;;;;12.63;7.85;;;13.10;70.70;;;;;;5032805;28;20042;-60
2022/03/19 03:45:33;;;;;;;11.90;8.23;;;13.00;70.80;;;;;;5033664;28;20024;-60
2022/03/19 03:47:59;;;;;;;11.35;8.05;;;13.00;70.80;;;;;;5033221;28;20041;-61
2022/03/19 03:50:25;;;;;;;16.73;9.40;;;13.00;70.80;;;;;;5033267;28;20025;-61
2022/03/19 03:52:50;;;;;;;14.02;8.40;;;13.00;71.00;;;;;;5033064;28;20037;-60
2022/03/19 03:55:17;;;;;;;11.15;7.57;;;12.90;71.00;;;;;;5033460;28;20022;-59
2022/03/19 03:57:42;;;;;;;14.32;7.72;;;13.00;71.00;;;;;;5033204;28;20022;-59
2022/03/19 04:00:09;;;;;;;15.68;7.53;;;13.00;71.00;;;;;;5032395;28;20028;-62
2022/03/19 04:02:35;;;;;;;13.70;8.10;;;12.90;71.20;;;;;;5032581;28;20033;-65
2022/03/19 04:05:01;;;;;;;10.32;7.32;;;12.90;71.20;;;;;;5033204;28;20025;-61
2022/03/19 04:07:27;;;;;;;10.40;7.78;;;12.90;71.20;;;;;;5032688;28;20112;-67
2022/03/19 04:09:53;;;;;;;10.90;7.50;;;12.90;71.10;;;;;;5033078;28;20104;-67
2022/03/19 04:12:19;;;;;;;11.57;8.55;;;12.90;71.10;;;;;;5033423;28;20029;-66
2022/03/19 04:14:45;;;;;;;11.70;7.60;;;12.80;71.30;;;;;;5032571;28;20536;-67
2022/03/19 04:17:11;;;;;;;11.95;8.00;;;12.80;71.30;;;;;;5031967;28;20025;-60
2022/03/19 04:19:36;;;;;;;13.30;7.32;;;12.80;71.30;;;;;;5032995;28;20402;-61
2022/03/19 04:22:02;;;;;;;14.77;8.48;;;12.80;71.30;;;;;;5033094;28;20478;-64
2022/03/19 04:24:28;;;;;;;9.90;7.35;;;12.80;71.40;;;;;;5032736;28;20033;-63
2022/03/19 04:26:53;;;;;;;10.90;7.68;;;12.80;71.40;;;;;;5005796;28;20087;-61
2022/03/19 04:29:19;;;;;;;12.63;7.57;;;12.80;71.50;;;;;;5013235;28;20068;-65
2022/03/19 04:31:44;;;;;;;12.02;7.60;;;12.80;71.50;;;;;;5017737;28;20486;-61
2022/03/19 04:34:10;;;;;;;12.02;7.80;;;12.70;71.60;;;;;;5032617;28;20032;-59
2022/03/19 04:36:37;;;;;;;10.00;7.32;;;12.70;71.70;;;;;;5032324;28;20029;-59
2022/03/19 04:39:05;;;;;;;10.95;8.27;;;12.70;71.70;;;;;;5032879;28;20038;-59
2022/03/19 04:41:32;;;;;;;13.23;7.95;;;12.70;71.70;;;;;;5032832;28;20021;-62
2022/03/19 04:43:58;;;;;;;11.82;8.07;;;12.70;71.80;;;;;;5032677;28;20352;-59
2022/03/19 04:46:24;;;;;;;15.93;8.05;;;12.70;71.80;;;;;;5032234;28;20163;-60
2022/03/19 04:48:50;;;;;;;13.20;7.97;;;12.70;71.90;;;;;;5032478;28;20040;-59
2022/03/19 04:51:21;;;;;;;14.52;8.55;;;12.60;71.90;;;;;;5032201;28;20087;-59
2022/03/19 04:53:50;;;;;;;10.32;8.70;;;12.70;72.00;;;;;;5032810;28;20032;-58
2022/03/19 04:56:22;;;;;;;17.73;8.23;;;12.60;72.00;;;;;;5032348;28;20482;-59
2022/03/19 04:58:50;;;;;;;12.95;8.15;;;12.60;71.90;;;;;;5032630;28;20025;-58
2022/03/19 05:01:17;;;;;;;13.00;8.00;;;12.60;72.10;;;;;;5032264;28;20026;-58
2022/03/19 05:03:42;;;;;;;12.45;8.30;;;12.60;72.10;;;;;;5031900;28;20376;-58
2022/03/19 05:06:08;;;;;;;11.10;7.43;;;12.50;72.10;;;;;;5032006;28;20040;-58
2022/03/19 05:08:34;;;;;;;15.07;8.02;;;12.50;72.10;;;;;;5032504;28;20371;-59
2022/03/19 05:11:15;;;;;;;8.95;6.90;;;12.50;72.10;;;;;;5032652;28;20101;-59
2022/03/19 05:13:45;;;;;;;15.07;8.43;;;12.30;72.50;;;;;;5032605;28;20030;-58
2022/03/19 05:16:11;;;;;;;12.52;8.70;;;12.40;72.30;;;;;;5031805;28;20482;-59
2022/03/19 05:18:37;;;;;;;12.77;8.43;;;12.40;72.20;;;;;;5032743;28;20025;-66
2022/03/19 05:21:04;;;;;;;11.55;8.35;;;12.40;72.10;;;;;;5032485;28;20078;-59
2022/03/19 05:23:30;;;;;;;11.98;7.70;;;12.40;72.00;;;;;;5032571;28;20029;-67
2022/03/19 05:25:57;;;;;;;11.30;7.72;;;12.40;72.00;;;;;;5032150;28;20022;-65
2022/03/19 05:28:23;;;;;;;9.88;7.45;;;12.40;72.00;;;;;;5032347;28;20025;-67
2022/03/19 05:30:48;;;;;;;11.80;7.55;;;12.40;72.00;;;;;;5031065;28;20098;-65
2022/03/19 05:33:15;;;;;;;15.48;8.50;;;12.40;72.00;;;;;;5031283;28;20025;-67
2022/03/19 05:35:41;;;;;;;12.18;7.75;;;12.40;71.90;;;;;;5033921;28;20029;-64
2022/03/19 05:38:08;;;;;;;13.57;8.38;;;12.40;71.80;;;;;;5036035;28;20144;-65
2022/03/19 05:40:34;;;;;;;11.70;8.55;;;12.30;72.10;;;;;;5035824;28;20029;-65
2022/03/19 05:43:00;;;;;;;14.20;8.43;;;12.30;72.10;;;;;;5035706;28;20105;-67
2022/03/19 05:45:26;;;;;;;10.35;8.40;;;12.20;72.40;;;;;;5034974;28;20108;-67
2022/03/19 05:47:51;;;;;;;12.95;8.65;;;12.20;72.30;;;;;;5036052;28;20063;-67
2022/03/19 05:50:17;;;;;;;14.77;8.95;;;12.20;72.20;;;;;;5035838;28;20029;-67
2022/03/19 05:52:46;;;;;;;11.80;8.40;;;12.20;72.20;;;;;;5035686;28;20010;-66
2022/03/19 05:55:14;;;;;;;13.40;7.95;;;12.20;72.20;;;;;;5034961;28;20029;-66
2022/03/19 05:57:40;;;;;;;12.95;8.52;;;12.20;72.10;;;;;;5035377;28;20026;-67
2022/03/19 06:00:08;;;;;;;14.15;8.60;;;12.20;72.30;;;;;;5035244;28;20489;-66
2022/03/19 06:02:42;;;;;;;14.60;9.32;;;12.10;72.50;;;;;;5032028;28;20437;-65
2022/03/19 06:05:08;;;;;;;10.60;7.93;;;12.10;72.50;;;;;;5034565;28;20061;-66
2022/03/19 06:07:34;;;;;;;11.55;8.02;;;12.10;72.60;;;;;;5016909;28;20055;-67
2022/03/19 06:09:59;;;;;;;11.38;8.60;;;12.10;72.60;;;;;;5035700;28;20064;-68
2022/03/19 06:12:25;;;;;;;11.20;7.80;;;12.10;72.40;;;;;;5035249;28;20042;-67
2022/03/19 06:14:53;;;;;;;10.75;7.70;;;12.10;72.50;;;;;;5034720;28;20091;-64
2022/03/19 06:17:19;;;;;;;10.95;8.60;;;12.10;72.50;;;;;;5034917;28;20565;-67
2022/03/19 06:19:45;;;;;;;10.18;7.93;;;12.10;72.40;;;;;;5035277;28;20024;-66
2022/03/19 06:22:11;;;;;;;12.88;8.27;;;12.00;72.60;;;;;;5035039;28;20026;-67
2022/03/19 06:24:37;;;;;;;14.65;8.88;;;12.00;72.80;;;;;;5035018;28;20059;-65
2022/03/19 06:27:03;;;;;;;10.43;7.97;;;11.90;73.00;;;;;;5034083;28;20013;-60
2022/03/19 06:29:29;;;;;;;12.98;8.23;;;11.90;73.00;;;;;;5034531;28;20033;-59
2022/03/19 06:31:54;;;;;;;14.13;8.98;;;11.90;73.20;;;;;;5034812;28;20029;-60
2022/03/19 06:34:20;;;;;;;12.07;9.27;;;11.90;73.10;;;;;;5017460;28;20073;-62
2022/03/19 06:39:30;;;;;;;11.80;8.93;;;12.00;73.40;;;;;;5034837;28;20041;-60
2022/03/19 06:41:55;;;;;;;13.55;8.75;;;12.00;73.50;;;;;;5034379;28;20088;-60
2022/03/19 06:44:21;;;;;;;11.75;8.95;;;12.10;73.40;;;;;;5034741;28;20033;-60
2022/03/19 06:46:47;;;;;;;13.02;8.65;;;12.10;73.10;;;;;;5034183;28;20029;-59
2022/03/19 06:49:12;;;;;;;11.40;8.07;;;12.20;73.00;;;;;;5034607;28;20018;-59
2022/03/19 06:51:38;;;;;;;14.98;8.82;;;12.20;72.90;;;;;;5034302;28;20386;-59
2022/03/19 06:54:04;;;;;;;13.25;8.85;;;12.20;73.00;;;;;;5034398;28;20461;-60
2022/03/19 06:56:30;;;;;;;14.52;8.82;;;12.20;72.80;;;;;;5034191;28;20096;-62
2022/03/19 06:58:55;;;;;;;15.52;8.20;;;12.30;72.80;;;;;;5033802;28;20038;-62
2022/03/19 07:01:21;;;;;;;9.48;8.25;;;12.30;72.80;;;;;;5034555;28;20025;-60
2022/03/19 07:03:47;;;;;;;11.13;8.07;;;12.20;73.10;;;;;;5034291;28;20478;-59
2022/03/19 07:06:15;;;;;;;10.68;8.38;;;12.30;72.90;;;;;;5033872;28;20474;-67
2022/03/19 07:08:41;;;;;;;10.50;7.85;;;12.30;72.70;;;;;;5034112;28;20022;-59
2022/03/19 07:11:07;;;;;;;10.50;7.90;;;12.40;72.30;;;;;;5033430;28;20024;-62
2022/03/19 07:13:33;;;;;;;12.32;7.45;;;12.50;72.30;;;;;;5034218;28;20382;-61
2022/03/19 07:15:59;;;;;;;12.50;8.65;;;12.50;72.10;;;;;;5033576;28;20079;-66
2022/03/19 07:18:24;;;;;;;13.48;8.13;;;12.50;72.00;;;;;;5033765;28;20026;-64
2022/03/19 07:20:50;;;;;;;12.88;8.02;;;12.60;71.80;;;;;;5015013;28;20050;-61
2022/03/19 07:23:16;;;;;;;11.05;7.95;;;12.60;71.70;;;;;;5013959;28;20030;-66
2022/03/19 07:25:43;;;;;;;8.32;5.43;;;12.60;71.50;;;;;;5013892;28;20029;-60
2022/03/19 07:28:20;;;;;;;11.57;5.25;;;12.70;72.70;;;;;;5014775;28;20510;-58
2022/03/19 07:30:46;;;;;;;9.82;5.20;;;12.90;72.60;;;;;;5013908;28;20099;-59
2022/03/19 07:33:13;;;;;;;11.30;5.28;;;13.10;71.60;;;;;;5013828;28;20034;-62
2022/03/19 07:35:40;;;;;;;8.30;4.45;;;13.30;70.90;;;;;;5014011;28;20463;-58
2022/03/19 07:38:06;;;;;;;10.48;4.97;;;13.40;70.70;;;;;;5014910;28;20053;-59
2022/03/19 07:43:17;;;;;;;6.53;4.60;;;13.60;69.70;;;;;;5014156;28;20065;-59
2022/03/19 07:45:43;;;;;;;8.20;5.18;;;13.70;69.60;;;;;;5013955;28;20406;-58
2022/03/19 07:48:09;;;;;;;7.40;4.85;;;13.70;69.70;;;;;;5015346;28;20018;-58
2022/03/19 07:50:35;;;;;;;11.48;5.47;;;13.70;69.30;;;;;;5033479;28;20029;-59
2022/03/19 07:53:01;;;;;;;8.52;5.07;;;13.80;69.00;;;;;;5032848;28;20280;-59
2022/03/19 07:55:26;;;;;;;7.50;4.20;;;13.80;69.20;;;;;;5033286;28;20029;-60
2022/03/19 07:57:52;;;;;;;8.75;4.57;;;13.80;69.30;;;;;;5032833;28;20032;-60
2022/03/19 08:00:18;;;;;;;11.85;4.85;;;13.90;68.90;;;;;;5033085;28;20030;-63
2022/03/19 08:02:45;;;;;;;7.43;4.57;;;13.90;68.50;;;;;;5033053;28;20048;-66
2022/03/19 08:05:12;;;;;;;6.47;4.70;;;13.90;68.50;;;;;;5033179;28;20052;-65
2022/03/19 08:07:38;;;;;;;6.40;4.90;;;14.00;68.70;;;;;;5032807;28;20017;-59
2022/03/19 08:10:09;;;;;;;8.63;4.78;;;14.00;68.20;;;;;;5015385;28;20052;-67
2022/03/19 08:12:36;;;;;;;7.18;4.60;;;14.00;68.10;;;;;;5033330;28;20040;-66
2022/03/19 08:15:03;;;;;;;10.10;5.03;;;14.00;68.00;;;;;;5032721;28;20197;-68
2022/03/19 08:17:29;;;;;;;9.30;5.10;;;14.00;67.70;;;;;;5032876;28;20022;-68
2022/03/19 08:19:59;;;;;;;7.45;4.85;;;13.90;67.50;;;;;;5033203;28;20034;-68
2022/03/19 08:22:28;;;;;;;8.38;4.53;;;13.90;68.10;;;;;;5033203;28;20486;-68
2022/03/19 08:24:53;;;;;;;7.25;4.63;;;13.90;68.50;;;;;;5032525;28;20025;-68
2022/03/19 08:27:20;;;;;;;9.77;4.35;;;14.00;67.70;;;;;;5032927;28;20026;-63
2022/03/19 08:29:46;;;;;;;8.38;4.47;;;14.10;67.60;;;;;;5032793;28;20025;-66
2022/03/19 08:32:11;;;;;;;7.70;3.85;;;14.20;67.30;;;;;;5033006;28;20105;-67
2022/03/19 08:34:38;;;;;;;6.53;3.95;;;14.20;67.60;;;;;;5032887;28;20017;-67
2022/03/19 08:37:04;;;;;;;5.22;3.35;;;14.30;67.70;;;;;;5032622;28;20029;-62
2022/03/19 08:42:14;;;;;;;6.70;3.97;;;14.40;66.60;;;;;;5033085;28;20107;-64
2022/03/19 08:44:40;;;;;;;11.95;3.75;;;14.40;66.90;;;;;;5015264;28;20430;-64
2022/03/19 08:47:05;;;;;;;8.32;4.60;;;14.40;67.00;;;;;;5019330;28;20498;-60
2022/03/19 08:49:31;;;;;;;7.70;4.10;;;14.50;66.50;;;;;;5023346;28;20026;-61
2022/03/19 08:51:57;;;;;;;6.82;3.58;;;14.50;66.10;;;;;;5026342;28;20100;-62
2022/03/19 08:54:22;;;;;;;10.07;4.40;;;14.50;65.90;;;;;;5028095;28;20057;-61
2022/03/19 08:56:49;;;;;;;10.82;3.83;;;14.40;64.60;;;;;;5011590;28;20033;-60
2022/03/19 08:59:16;;;;;;;8.60;3.85;;;14.40;65.60;;;;;;5018738;28;20036;-62
2022/03/19 09:01:43;;;;;;;22.45;4.95;;;14.50;65.40;;;;;;5009627;28;20076;-60
2022/03/19 09:04:10;;;;;;;10.18;3.95;;;14.50;65.80;;;;;;5023876;28;20458;-60
2022/03/19 09:06:36;;;;;;;8.30;3.75;;;14.60;65.50;;;;;;5004830;28;20429;-61
2022/03/19 09:09:03;;;;;;;13.30;4.00;;;14.60;64.40;;;;;;5027865;28;20025;-59
2022/03/19 09:11:33;;;;;;;7.63;3.65;;;14.60;64.50;;;;;;5024768;28;20063;-59
2022/03/19 09:13:59;;;;;;;8.38;3.65;;;14.50;64.30;;;;;;5016227;28;20018;-59
2022/03/19 09:16:25;;;;;;;8.15;3.60;;;14.50;65.70;;;;;;5033418;28;20096;-60
2022/03/19 09:18:51;;;;;;;10.52;4.05;;;14.50;64.50;;;;;;5032279;28;20439;-59
2022/03/19 09:21:18;;;;;;;6.55;2.97;;;14.50;64.60;;;;;;5033313;28;20021;-59
2022/03/19 09:23:49;;;;;;;7.65;3.47;;;14.60;65.80;;;;;;5029329;28;20552;-60
2022/03/19 09:26:16;;;;;;;7.28;3.72;;;14.60;64.50;;;;;;5027981;28;20021;-60
2022/03/19 09:28:42;;;;;;;6.68;2.75;;;14.60;63.70;;;;;;5027156;28;20041;-61
2022/03/19 09:31:07;;;;;;;8.77;3.90;;;14.50;63.90;;;;;;5013432;28;20375;-60
2022/03/19 09:33:33;;;;;;;9.65;3.42;;;14.50;63.80;;;;;;5030046;28;20053;-59
2022/03/19 09:36:01;;;;;;;9.48;2.67;;;14.50;64.80;;;;;;5030838;28;20017;-60
2022/03/19 09:38:28;;;;;;;6.35;3.60;;;14.50;65.00;;;;;;5025503;28;20112;-58
2022/03/19 09:40:55;;;;;;;11.80;3.53;;;14.60;64.00;;;;;;5023219;28;20026;-61
2022/03/19 09:43:25;;;;;;;7.53;3.42;;;14.70;63.90;;;;;;5024247;28;20033;-59
2022/03/19 09:45:51;;;;;;;9.73;4.35;;;14.70;62.60;;;;;;5030240;28;20022;-56
2022/03/19 09:48:16;;;;;;;8.90;4.25;;;14.50;62.20;;;;;;5032476;28;20104;-60
2022/03/19 09:50:42;;;;;;;7.78;4.15;;;14.40;61.60;;;;;;5012814;28;20533;-59
2022/03/19 09:53:09;;;;;;;8.27;4.30;;;14.20;61.60;;;;;;5029905;28;20036;-60
2022/03/19 09:55:39;;;;;;;10.18;4.68;;;14.00;61.90;;;;;;5025534;28;20033;-59
2022/03/19 09:58:05;;;;;;;9.77;4.07;;;14.00;62.30;;;;;;5027206;28;20104;-58
2022/03/19 10:00:32;;;;;;;7.43;4.50;;;13.90;63.00;;;;;;5028166;28;20183;-57
2022/03/19 10:03:00;;;;;;;9.55;4.90;;;13.90;63.30;;;;;;5029351;28;20033;-60
2022/03/19 10:10:58;;;;;;;9.35;4.70;;;13.80;62.80;;;;;;5023531;28;20132;-60
2022/03/19 10:13:25;;;;;;;11.32;4.30;;;13.80;63.20;;;;;;5027907;28;20108;-59
2022/03/19 10:15:51;;;;;;;9.35;4.90;;;13.70;62.60;;;;;;5033617;28;20029;-60
2022/03/19 10:18:17;;;;;;;10.43;4.45;;;13.70;62.90;;;;;;5033184;28;20041;-59
2022/03/19 10:20:43;;;;;;;7.88;4.63;;;13.70;62.00;;;;;;5015641;28;20037;-58
2022/03/19 10:23:09;;;;;;;11.68;4.88;;;13.60;62.30;;;;;;5031859;28;20017;-62
2022/03/19 10:25:35;;;;;;;10.73;4.80;;;13.60;62.70;;;;;;5033982;28;20029;-60
2022/03/19 10:28:03;;;;;;;9.05;4.60;;;13.70;62.60;;;;;;5032952;28;20025;-61
2022/03/19 10:30:36;;;;;;;6.03;4.13;;;13.70;62.60;;;;;;5023720;28;20021;-56
2022/03/19 10:33:01;;;;;;;7.97;4.32;;;13.80;62.00;;;;;;5030136;28;20048;-62
2022/03/19 10:35:32;;;;;;;8.25;4.78;;;13.80;62.40;;;;;;5031526;28;20463;-58
2022/03/19 10:38:05;;;;;;;7.30;4.25;;;13.80;61.40;;;;;;5031245;28;20029;-55
2022/03/19 10:40:38;;;;;;;8.32;4.25;;;13.80;61.00;;;;;;5033818;28;20034;-57
2022/03/19 10:43:07;;;;;;;7.55;4.05;;;13.80;60.70;;;;;;5033288;28;20039;-58
2022/03/19 10:45:33;;;;;;;8.30;4.13;;;13.80;60.20;;;;;;5025677;28;20075;-55
2022/03/19 10:48:02;;;;;;;9.70;4.05;;;13.70;60.30;;;;;;5027628;28;20030;-57
2022/03/19 10:50:28;;;;;;;10.57;4.82;;;13.70;60.40;;;;;;5012963;28;20025;-56
2022/03/19 10:52:54;;;;;;;8.73;4.47;;;13.80;60.20;;;;;;5022967;28;20030;-59
2022/03/19 10:55:20;;;;;;;8.77;4.65;;;13.80;60.80;;;;;;5023668;28;20095;-59
2022/03/19 10:57:47;;;;;;;8.48;4.68;;;13.80;60.90;;;;;;5009490;28;20386;-59
2022/03/19 11:00:14;;;;;;;8.07;3.88;;;13.80;60.00;;;;;;5029444;28;20032;-59
2022/03/19 11:02:48;;;;;;;7.60;4.47;;;13.80;59.20;;;;;;5025509;28;20037;-58
2022/03/19 11:05:18;;;;;;;7.45;3.58;;;13.90;57.90;;;;;;5023467;28;20029;-56
2022/03/19 11:07:45;;;;;;;7.18;4.20;;;13.90;57.70;;;;;;5027728;28;20064;-58
2022/03/19 11:10:12;;;;;;;11.27;4.22;;;13.90;58.20;;;;;;5018392;28;20034;-55
2022/03/19 11:12:50;;;;;;;7.35;3.85;;;13.90;58.10;;;;;;5029873;28;20033;-56
2022/03/19 11:15:18;;;;;;;6.07;3.45;;;13.90;57.80;;;;;;5031988;28;20014;-57
2022/03/19 11:17:45;;;;;;;4.47;3.17;;;14.00;57.30;;;;;;5032267;28;20025;-58
2022/03/19 11:20:12;;;;;;;9.60;3.67;;;14.10;55.40;;;;;;5032718;28;20025;-58
2022/03/19 11:22:39;;;;;;;8.52;3.22;;;14.10;53.70;;;;;;5030325;28;20029;-60
2022/03/19 11:25:13;;;;;;;6.47;2.92;;;14.10;53.30;;;;;;5022157;28;20087;-57
2022/03/19 11:27:41;;;;;;;6.18;3.00;;;14.20;55.30;;;;;;5032441;28;20474;-60
2022/03/19 11:30:29;;;;;;;7.65;2.90;;;14.20;53.80;;;;;;5020656;28;20026;-60
2022/03/19 11:33:15;;;;;;;7.13;2.63;;;14.30;53.60;;;;;;5018611;28;20025;-63
2022/03/19 11:35:42;;;;;;;5.93;2.95;;;14.30;52.50;;;;;;5012100;28;20083;-54
2022/03/19 11:38:15;;;;;;;10.63;3.50;;;14.30;50.80;;;;;;5017824;28;20484;-59
2022/03/19 11:40:46;;;;;;;5.03;2.92;;;14.30;50.90;;;;;;5031079;28;20040;-58
2022/03/19 11:43:28;;;;;;;9.50;3.05;;;14.30;51.30;;;;;;5029884;28;20433;-58
2022/03/19 11:46:02;;;;;;;6.93;3.45;;;14.20;51.30;;;;;;5030382;28;20029;-59
2022/03/19 11:48:50;;;;;;;8.60;2.97;;;14.30;50.60;;;;;;5030545;28;20040;-61
2022/03/19 11:51:24;;;;;;;7.00;2.85;;;14.30;51.80;;;;;;5025758;28;20053;-62
2022/03/19 11:53:50;;;;;;;4.20;2.70;;;14.40;51.40;;;;;;5011672;28;20382;-62
2022/03/19 11:56:19;;;;;;;7.78;3.15;;;14.40;51.50;;;;;;5029909;28;20136;-60
2022/03/19 11:58:46;;;;;;;7.07;2.90;;;14.40;52.00;;;;;;5028085;28;20025;-60
2022/03/19 12:01:12;;;;;;;5.50;2.72;;;14.40;52.60;;;;;;5026943;28;20453;-65
2022/03/19 12:04:05;;;;;;;9.80;3.20;;;14.50;51.50;;;;;;5023933;28;20325;-65
2022/03/19 12:06:36;;;;;;;6.22;3.47;;;14.60;52.30;;;;;;5022679;28;20034;-61
2022/03/19 12:09:02;;;;;;;7.75;2.60;;;14.60;51.40;;;;;;5024091;28;20020;-61
2022/03/19 12:11:28;;;;;;;7.18;3.40;;;14.60;51.50;;;;;;5025454;28;20021;-64
2022/03/19 12:13:56;;;;;;;10.82;3.65;;;14.60;50.40;;;;;;5028110;28;20033;-61
2022/03/19 12:16:45;;;;;;;7.13;3.03;;;14.60;50.90;;;;;;5030212;28;20119;-59
2022/03/19 12:19:11;;;;;;;11.07;3.55;;;14.70;52.10;;;;;;5007574;28;20083;-61
2022/03/19 12:21:44;;;;;;;5.68;2.83;;;14.70;51.70;;;;;;5021582;28;20382;-61
2022/03/19 12:24:26;;;;;;;7.80;3.22;;;14.70;51.90;;;;;;5018364;28;20355;-60
2022/03/19 12:26:52;;;;;;;;;;;14.80;52.50;;;;;;5024668;28;20022;-60
2022/03/19 12:29:20;;;;;;;6.05;2.67;;;14.80;53.80;;;;;;4999829;28;19963;-59
2022/03/19 12:31:50;;;;;;;11.02;4.70;;;14.80;53.80;;;;;;5027979;28;20383;-61
2022/03/19 12:34:24;;;;;;;6.30;3.17;;;14.90;50.10;;;;;;5028898;28;20070;-66
2022/03/19 12:37:01;;;;;;;7.07;2.88;;;14.90;49.90;;;;;;5026837;28;20034;-60
2022/03/19 12:39:28;;;;;;;6.22;2.78;;;14.90;50.30;;;;;;5023076;28;20048;-59
2022/03/19 12:41:54;;;;;;;6.07;2.85;;;14.90;50.20;;;;;;5006774;28;20034;-61
2022/03/19 12:44:25;;;;;;;7.43;3.03;;;14.90;51.20;;;;;;5019258;28;20041;-66
2022/03/19 12:47:00;;;;;;;9.73;3.10;;;14.90;49.70;;;;;;5025703;28;20112;-61
2022/03/19 12:49:27;;;;;;;5.03;2.70;;;14.90;49.80;;;;;;5026639;28;20032;-66
2022/03/19 12:51:53;;;;;;;7.90;2.35;;;14.90;49.10;;;;;;5021691;28;20022;-62
2022/03/19 12:54:21;;;;;;;7.20;2.60;;;14.90;46.60;;;;;;5032454;28;20040;-61
2022/03/19 12:56:48;;;;;;;6.97;2.25;;;14.80;46.40;;;;;;5027484;28;20033;-58
2022/03/19 12:59:22;;;;;;;7.15;2.35;;;14.80;47.20;;;;;;5023604;28;20025;-59